Time;durP1;ratioP1;P1;durP2;ratioP2;P2;SDS_P1;SDS_P2;PMS_P1;PMS_P2;Temp;Humidity;BMP_temperature;BMP_pressure;BME280_temperature;BME280_humidity;BME280_pressure;Samples;Min_cycle;Max_cycle;Signal;HPM_P1;HPM_P2
2024/01/13 00:02:00;;;;;;;31.88;13.18;;;-2.70;99.90;;;;;;4956630;28;20453;-58
2024/01/13 00:04:26;;;;;;;30.13;12.75;;;-2.90;99.90;;;;;;4965147;28;20489;-59
2024/01/13 00:06:53;;;;;;;35.17;13.30;;;-2.90;99.90;;;;;;4954393;29;20492;-58
2024/01/13 00:09:20;;;;;;;;;;;-2.90;99.90;;;;;;4956064;29;20058;-60
2024/01/13 00:11:47;;;;;;;30.92;11.50;;;-2.80;99.90;;;;;;4955726;29;19973;-60
2024/01/13 00:14:14;;;;;;;36.25;13.55;;;-2.90;99.90;;;;;;4955698;28;20035;-59
2024/01/13 00:16:41;;;;;;;38.58;13.55;;;-2.90;99.90;;;;;;4951464;29;20057;-57
2024/01/13 00:19:08;;;;;;;31.95;11.90;;;-2.90;99.90;;;;;;4955426;29;20082;-59
2024/01/13 00:21:35;;;;;;;30.75;12.52;;;-2.90;99.90;;;;;;4955582;29;20046;-58
2024/01/13 00:24:01;;;;;;;31.17;12.18;;;-2.90;99.90;;;;;;4951706;29;20444;-57
2024/01/13 00:26:28;;;;;;;30.08;13.02;;;-3.00;99.90;;;;;;4955835;29;20426;-60
2024/01/13 00:28:55;;;;;;;31.23;12.65;;;-3.10;99.90;;;;;;4951788;29;20042;-58
2024/01/13 00:31:22;;;;;;;35.30;13.48;;;-3.20;99.90;;;;;;4954584;29;20045;-57
2024/01/13 00:33:49;;;;;;;28.25;11.48;;;-3.30;99.90;;;;;;4954483;28;20039;-58
2024/01/13 00:36:16;;;;;;;32.65;13.18;;;-3.30;99.90;;;;;;4954335;29;20134;-59
2024/01/13 00:38:43;;;;;;;32.13;12.82;;;-3.30;99.90;;;;;;4946438;29;20053;-58
2024/01/13 00:41:10;;;;;;;42.83;14.95;;;-3.20;99.90;;;;;;4954114;29;20644;-60
2024/01/13 00:43:37;;;;;;;33.88;14.10;;;-3.20;99.90;;;;;;4954828;28;20039;-59
2024/01/13 00:46:04;;;;;;;36.28;14.40;;;-3.10;99.90;;;;;;4957209;28;20051;-60
2024/01/13 00:48:31;;;;;;;35.17;14.10;;;-2.90;99.90;;;;;;4957071;28;20039;-59
2024/01/13 00:51:10;;;;;;;31.02;12.57;;;-2.90;99.90;;;;;;4965559;28;20079;-57
2024/01/13 00:53:41;;;;;;;28.25;12.23;;;-2.90;99.90;;;;;;4965802;28;20031;-58
2024/01/13 00:56:08;;;;;;;32.22;13.27;;;-2.90;99.90;;;;;;4957662;28;20105;-60
2024/01/13 00:58:36;;;;;;;26.77;11.30;;;-2.90;99.90;;;;;;4960719;28;20424;-59
2024/01/13 01:01:12;;;;;;;35.03;13.82;;;-2.90;99.90;;;;;;4956655;28;20047;-60
2024/01/13 01:03:40;;;;;;;32.58;13.55;;;-2.90;99.90;;;;;;4955800;28;20031;-58
2024/01/13 01:06:08;;;;;;;30.73;12.68;;;-2.80;99.90;;;;;;4953281;28;20047;-59
2024/01/13 01:08:34;;;;;;;;;;;-2.80;99.90;;;;;;4955668;29;20126;-57
2024/01/13 01:11:07;;;;;;;37.92;14.57;;;-2.80;99.90;;;;;;4954843;29;19973;-60
2024/01/13 01:13:34;;;;;;;38.55;14.95;;;-2.70;99.90;;;;;;4955509;28;20047;-59
2024/01/13 01:16:01;;;;;;;31.52;13.75;;;-2.70;99.90;;;;;;4950563;29;20054;-58
2024/01/13 01:18:28;;;;;;;31.52;12.70;;;-2.60;99.90;;;;;;4955682;29;20035;-60
2024/01/13 01:21:10;;;;;;;38.42;13.80;;;-2.60;99.90;;;;;;4952762;29;20035;-57
2024/01/13 01:23:38;;;;;;;42.42;16.20;;;-2.60;99.90;;;;;;4954989;28;20039;-58
2024/01/13 01:26:05;;;;;;;40.35;15.98;;;-2.60;99.90;;;;;;4952494;28;20050;-59
2024/01/13 01:28:32;;;;;;;41.58;17.13;;;-2.50;99.90;;;;;;4970069;28;20043;-58
2024/01/13 01:31:05;;;;;;;41.90;16.90;;;-2.50;99.90;;;;;;4962533;28;20042;-57
2024/01/13 01:33:33;;;;;;;37.88;15.65;;;-2.40;99.90;;;;;;4962847;28;20050;-59
2024/01/13 01:36:01;;;;;;;43.40;18.73;;;-2.50;99.90;;;;;;4947886;29;20070;-58
2024/01/13 01:38:28;;;;;;;45.55;17.90;;;-2.40;99.90;;;;;;4947505;29;20108;-59
2024/01/13 01:41:09;;;;;;;39.45;15.98;;;-2.50;99.90;;;;;;4954606;29;20049;-56
2024/01/13 01:43:37;;;;;;;45.45;17.90;;;-2.50;99.90;;;;;;4951098;28;20043;-60
2024/01/13 01:46:04;;;;;;;43.25;16.77;;;-2.50;99.90;;;;;;4954850;29;20062;-58
2024/01/13 01:48:40;;;;;;;38.45;15.52;;;-2.40;99.90;;;;;;4946078;29;20511;-59
2024/01/13 01:51:13;;;;;;;38.35;15.27;;;-2.40;99.90;;;;;;4954251;29;20043;-58
2024/01/13 01:53:41;;;;;;;34.72;15.13;;;-2.40;99.90;;;;;;4948048;29;20039;-59
2024/01/13 01:56:14;;;;;;;39.70;16.23;;;-2.50;99.90;;;;;;4951956;29;20043;-58
2024/01/13 01:58:42;;;;;;;37.55;15.57;;;-2.50;99.90;;;;;;4954073;29;20047;-59
2024/01/13 02:01:10;;;;;;;39.15;14.95;;;-2.50;99.90;;;;;;4946383;29;20040;-60
2024/01/13 02:03:39;;;;;;;36.30;14.75;;;-2.50;99.90;;;;;;4954710;28;20043;-60
2024/01/13 02:06:07;;;;;;;32.38;13.48;;;-2.50;99.90;;;;;;4953242;28;20509;-60
2024/01/13 02:08:34;;;;;;;35.47;15.80;;;-2.50;99.90;;;;;;4954866;29;20086;-60
2024/01/13 02:11:10;;;;;;;37.75;16.05;;;-2.50;99.90;;;;;;4953265;29;20057;-61
2024/01/13 02:13:41;;;;;;;38.50;15.38;;;-2.50;99.90;;;;;;4947802;28;20489;-60
2024/01/13 02:16:09;;;;;;;43.60;16.90;;;-2.50;99.90;;;;;;4952918;28;20166;-59
2024/01/13 02:18:36;;;;;;;43.10;17.42;;;-2.50;99.90;;;;;;4954481;29;20054;-60
2024/01/13 02:21:09;;;;;;;34.65;15.50;;;-2.50;99.90;;;;;;4945474;29;20386;-59
2024/01/13 02:23:37;;;;;;;35.70;14.50;;;-2.60;99.90;;;;;;4953257;28;20396;-60
2024/01/13 02:26:04;;;;;;;39.53;15.38;;;-2.60;99.90;;;;;;4942132;29;20055;-60
2024/01/13 02:28:31;;;;;;;36.85;16.42;;;-2.60;99.90;;;;;;4961683;28;20047;-60
2024/01/13 02:31:14;;;;;;;36.45;15.70;;;-2.60;99.90;;;;;;4952889;29;20047;-60
2024/01/13 02:33:41;;;;;;;43.90;16.92;;;-2.60;99.90;;;;;;4952342;28;20122;-61
2024/01/13 02:36:08;;;;;;;38.65;16.40;;;-2.50;99.90;;;;;;4941513;29;20047;-58
2024/01/13 02:38:35;;;;;;;35.83;15.00;;;-2.50;99.90;;;;;;4953829;29;20528;-59
2024/01/13 02:41:05;;;;;;;36.45;15.20;;;-2.40;99.90;;;;;;4945676;29;20478;-59
2024/01/13 02:43:34;;;;;;;36.78;14.68;;;-2.40;99.90;;;;;;4940221;28;20039;-58
2024/01/13 02:46:01;;;;;;;29.35;13.63;;;-2.40;99.90;;;;;;4954100;29;20070;-59
2024/01/13 02:48:43;;;;;;;33.92;13.48;;;-2.50;99.90;;;;;;4953569;29;20050;-60
2024/01/13 02:51:16;;;;;;;30.27;14.38;;;-2.50;99.90;;;;;;4953547;29;20058;-59
2024/01/13 02:53:44;;;;;;;32.08;14.30;;;-2.50;99.90;;;;;;4946491;28;20043;-59
2024/01/13 02:56:11;;;;;;;;;;;-2.50;99.90;;;;;;4953969;29;20098;-57
2024/01/13 02:58:38;;;;;;;32.55;13.85;;;-2.60;99.90;;;;;;4942502;29;20416;-60
2024/01/13 03:01:15;;;;;;;37.63;13.77;;;-2.60;99.90;;;;;;4944379;29;20663;-60
2024/01/13 03:03:48;;;;;;;34.17;14.32;;;-2.60;99.90;;;;;;4949653;28;20087;-60
2024/01/13 03:06:17;;;;;;;36.72;14.50;;;-2.70;99.90;;;;;;4952855;29;20043;-60
2024/01/13 03:08:44;;;;;;;32.13;14.40;;;-2.70;99.90;;;;;;4953136;29;20035;-60
2024/01/13 03:11:11;;;;;;;30.85;13.68;;;-2.70;99.90;;;;;;4948757;28;20047;-58
2024/01/13 03:13:41;;;;;;;35.30;14.35;;;-2.70;99.90;;;;;;4953396;28;20050;-61
2024/01/13 03:16:08;;;;;;;37.58;13.50;;;-2.70;99.90;;;;;;4948853;28;20413;-58
2024/01/13 03:18:36;;;;;;;34.38;12.93;;;-2.80;99.90;;;;;;4953097;29;20134;-57
2024/01/13 03:21:11;;;;;;;30.58;13.27;;;-2.80;99.90;;;;;;4950981;29;20055;-60
2024/01/13 03:23:44;;;;;;;34.20;14.95;;;-2.90;99.90;;;;;;4951780;28;20156;-60
2024/01/13 03:26:12;;;;;;;36.35;14.45;;;-3.00;99.90;;;;;;4937480;29;20048;-57
2024/01/13 03:28:39;;;;;;;33.30;14.02;;;-3.00;99.90;;;;;;4942361;29;20074;-60
2024/01/13 03:31:10;;;;;;;30.60;12.98;;;-3.00;99.90;;;;;;4948801;29;20047;-61
2024/01/13 03:33:39;;;;;;;30.55;13.20;;;-2.90;99.90;;;;;;4941316;29;20044;-59
2024/01/13 03:36:08;;;;;;;32.95;14.40;;;-3.00;99.90;;;;;;4949258;29;20054;-60
2024/01/13 03:38:36;;;;;;;29.60;13.35;;;-3.00;99.90;;;;;;4949746;29;20410;-60
2024/01/13 03:41:10;;;;;;;27.60;11.55;;;-3.00;99.90;;;;;;4949232;29;20051;-60
2024/01/13 03:43:37;;;;;;;31.58;12.80;;;-3.00;99.90;;;;;;4949000;28;20043;-60
2024/01/13 03:46:04;;;;;;;36.20;15.07;;;-3.10;99.90;;;;;;4945307;29;20490;-59
2024/01/13 03:48:31;;;;;;;27.70;12.95;;;-3.10;99.90;;;;;;4939584;29;20516;-60
2024/01/13 03:50:59;;;;;;;;;;;-3.10;99.90;;;;;;4953670;29;20392;-59
2024/01/13 03:53:28;;;;;;;31.70;12.80;;;-3.20;99.90;;;;;;4942463;29;19930;-59
2024/01/13 03:55:55;;;;;;;29.88;12.13;;;-3.20;99.90;;;;;;4946198;29;20488;-60
2024/01/13 03:58:22;;;;;;;31.48;13.77;;;-3.20;99.90;;;;;;4950631;29;20049;-60
2024/01/13 04:00:49;;;;;;;33.58;13.98;;;-3.30;99.90;;;;;;4945181;29;20039;-58
2024/01/13 04:03:20;;;;;;;32.05;13.75;;;-3.20;99.90;;;;;;4952749;29;20047;-60
2024/01/13 04:05:47;;;;;;;32.50;14.05;;;-3.30;99.90;;;;;;4950551;28;20075;-56
2024/01/13 04:08:14;;;;;;;32.88;13.90;;;-3.20;99.90;;;;;;4953250;29;20362;-60
2024/01/13 04:10:41;;;;;;;32.47;13.32;;;-3.20;99.90;;;;;;4947493;29;20095;-58
2024/01/13 04:13:13;;;;;;;37.00;14.23;;;-3.20;99.90;;;;;;4952953;29;20129;-58
2024/01/13 04:15:40;;;;;;;33.88;14.35;;;-3.10;99.90;;;;;;4944619;29;20496;-59
2024/01/13 04:18:07;;;;;;;31.98;13.18;;;-3.10;99.90;;;;;;4948623;29;20415;-59
2024/01/13 04:20:34;;;;;;;30.35;14.15;;;-3.20;99.90;;;;;;4960396;28;20378;-60
2024/01/13 04:23:01;;;;;;;33.28;14.05;;;-3.20;99.90;;;;;;4944680;29;20044;-59
2024/01/13 04:25:28;;;;;;;31.80;13.18;;;-3.20;99.90;;;;;;4939581;29;20047;-60
2024/01/13 04:27:55;;;;;;;31.88;13.82;;;-3.20;99.90;;;;;;4953493;28;20058;-57
2024/01/13 04:30:22;;;;;;;28.08;13.75;;;-3.20;99.90;;;;;;4948011;29;20075;-60
2024/01/13 04:32:50;;;;;;;34.38;14.65;;;-3.20;99.90;;;;;;4952399;29;20053;-58
2024/01/13 04:35:17;;;;;;;30.60;14.10;;;-3.20;99.90;;;;;;4947163;28;20096;-59
2024/01/13 04:37:44;;;;;;;31.45;13.90;;;-3.10;99.90;;;;;;4956235;29;20449;-60
2024/01/13 04:40:11;;;;;;;37.10;14.02;;;-3.20;99.90;;;;;;4949404;29;20082;-59
2024/01/13 04:42:37;;;;;;;30.35;13.10;;;-3.20;99.90;;;;;;4946907;29;20086;-56
2024/01/13 04:45:05;;;;;;;29.25;13.48;;;-3.30;99.90;;;;;;4950633;28;20062;-60
2024/01/13 04:47:32;;;;;;;33.75;14.00;;;-3.40;99.90;;;;;;4955881;29;20402;-60
2024/01/13 04:49:59;;;;;;;29.30;13.45;;;-3.50;99.90;;;;;;4955956;29;20058;-60
2024/01/13 04:52:26;;;;;;;25.38;11.95;;;-3.50;99.90;;;;;;4947898;29;20035;-59
2024/01/13 04:54:53;;;;;;;28.10;11.25;;;-3.60;99.90;;;;;;4948062;29;20087;-59
2024/01/13 04:57:20;;;;;;;23.40;11.52;;;-3.70;99.90;;;;;;4955389;29;20131;-57
2024/01/13 04:59:47;;;;;;;22.17;10.45;;;-3.80;99.90;;;;;;4955777;29;20500;-59
2024/01/13 05:02:14;;;;;;;20.95;9.98;;;-3.80;99.90;;;;;;4941219;28;20043;-59
2024/01/13 05:04:41;;;;;;;19.65;9.20;;;-3.90;99.90;;;;;;4947209;28;20113;-58
2024/01/13 05:07:08;;;;;;;26.77;9.82;;;-4.00;99.90;;;;;;4955692;29;20057;-59
2024/01/13 05:09:35;;;;;;;23.35;10.05;;;-4.10;99.90;;;;;;4955257;29;20114;-59
2024/01/13 05:12:02;;;;;;;27.77;10.35;;;-4.10;99.90;;;;;;4947946;29;20043;-59
2024/01/13 05:14:30;;;;;;;24.48;10.32;;;-4.20;99.90;;;;;;4955671;28;20515;-58
2024/01/13 05:16:59;;;;;;;24.75;9.68;;;-4.20;99.90;;;;;;4955209;29;20047;-59
2024/01/13 05:19:26;;;;;;;22.80;10.48;;;-4.20;99.90;;;;;;4947189;28;20043;-59
2024/01/13 05:21:53;;;;;;;;;;;-4.20;99.90;;;;;;4955698;29;20058;-58
2024/01/13 05:24:20;;;;;;;23.85;9.82;;;-4.20;99.90;;;;;;4947614;29;20016;-60
2024/01/13 05:26:47;;;;;;;31.92;11.25;;;-4.30;99.90;;;;;;4944267;29;20126;-58
2024/01/13 05:29:14;;;;;;;30.88;12.27;;;-4.40;99.90;;;;;;4959162;28;20404;-60
2024/01/13 05:31:42;;;;;;;32.40;13.75;;;-4.40;99.90;;;;;;4951093;29;20063;-58
2024/01/13 05:34:08;;;;;;;31.15;13.18;;;-4.30;99.90;;;;;;4935116;29;20059;-60
2024/01/13 05:36:35;;;;;;;;;;;-4.30;99.90;;;;;;4934107;29;20063;-59
2024/01/13 05:39:02;;;;;;;32.08;11.70;;;-4.30;99.90;;;;;;4955109;28;19922;-60
2024/01/13 05:41:29;;;;;;;30.65;13.55;;;-4.40;99.90;;;;;;4935019;29;20051;-60
2024/01/13 05:43:56;;;;;;;31.85;13.85;;;-4.30;99.90;;;;;;4938071;28;20035;-59
2024/01/13 05:46:23;;;;;;;29.55;13.13;;;-4.40;99.90;;;;;;4946568;28;20713;-60
2024/01/13 05:48:51;;;;;;;33.53;13.80;;;-4.40;99.90;;;;;;4947149;29;20070;-60
2024/01/13 05:51:18;;;;;;;38.05;14.30;;;-4.40;99.90;;;;;;4947937;29;20408;-60
2024/01/13 05:53:44;;;;;;;34.35;13.63;;;-4.40;99.90;;;;;;4949311;29;20044;-60
2024/01/13 05:56:11;;;;;;;34.53;14.48;;;-4.50;99.90;;;;;;4954938;29;20139;-60
2024/01/13 05:58:41;;;;;;;30.48;13.00;;;-4.50;99.90;;;;;;4955000;29;20053;-59
2024/01/13 06:01:07;;;;;;;32.53;13.73;;;-4.50;99.90;;;;;;4951572;29;20043;-59
2024/01/13 06:03:34;;;;;;;37.17;13.68;;;-4.50;99.90;;;;;;4954598;28;20493;-60
2024/01/13 06:06:02;;;;;;;26.85;11.73;;;-4.50;99.90;;;;;;4945923;29;20448;-60
2024/01/13 06:08:29;;;;;;;27.85;11.68;;;-4.50;99.90;;;;;;4950562;29;20056;-58
2024/01/13 06:10:56;;;;;;;32.60;12.90;;;-4.50;99.90;;;;;;4951176;29;20449;-58
2024/01/13 06:13:23;;;;;;;29.05;11.68;;;-4.60;99.90;;;;;;4954648;29;20056;-58
2024/01/13 06:15:50;;;;;;;24.75;11.80;;;-4.60;99.90;;;;;;4945851;28;20047;-58
2024/01/13 06:18:17;;;;;;;29.42;11.55;;;-4.60;99.90;;;;;;4951147;29;20043;-60
2024/01/13 06:20:44;;;;;;;;;;;-4.60;99.90;;;;;;4952929;29;20043;-60
2024/01/13 06:23:10;;;;;;;31.52;11.57;;;-4.60;99.90;;;;;;4948816;29;19923;-60
2024/01/13 06:25:37;;;;;;;23.40;9.98;;;-4.60;99.90;;;;;;4950650;28;20058;-60
2024/01/13 06:28:04;;;;;;;28.35;11.38;;;-4.60;99.90;;;;;;4954261;28;20124;-60
2024/01/13 06:30:31;;;;;;;26.83;12.38;;;-4.70;99.90;;;;;;4954088;29;20520;-60
2024/01/13 06:32:59;;;;;;;34.10;13.07;;;-4.70;99.90;;;;;;4946749;29;20657;-58
2024/01/13 06:35:26;;;;;;;28.05;12.40;;;-4.60;99.90;;;;;;4952331;29;20043;-60
2024/01/13 06:37:52;;;;;;;24.83;11.13;;;-4.70;99.90;;;;;;4945825;29;20051;-59
2024/01/13 06:40:19;;;;;;;30.35;12.63;;;-4.60;99.90;;;;;;4947811;29;20047;-60
2024/01/13 06:42:46;;;;;;;26.83;11.75;;;-4.70;99.90;;;;;;4950335;29;20522;-60
2024/01/13 06:45:13;;;;;;;30.40;12.77;;;-4.80;99.90;;;;;;4952138;28;20043;-60
2024/01/13 06:47:39;;;;;;;28.52;11.85;;;-4.80;99.90;;;;;;4953842;29;20059;-60
2024/01/13 06:50:07;;;;;;;27.35;12.18;;;-4.80;99.90;;;;;;4953966;29;20050;-60
2024/01/13 06:52:34;;;;;;;34.00;13.23;;;-4.80;99.90;;;;;;4945773;28;20044;-60
2024/01/13 06:55:02;;;;;;;31.45;12.25;;;-4.80;99.90;;;;;;4953587;28;20043;-60
2024/01/13 06:57:29;;;;;;;33.45;13.82;;;-4.90;99.90;;;;;;4953756;29;20055;-58
2024/01/13 06:59:55;;;;;;;37.45;13.38;;;-4.90;99.90;;;;;;4953663;29;20134;-60
2024/01/13 07:02:22;;;;;;;32.92;12.75;;;-4.90;99.90;;;;;;4945245;29;20075;-60
2024/01/13 07:04:52;;;;;;;30.27;12.05;;;-4.90;99.90;;;;;;4953355;28;20051;-60
2024/01/13 07:07:19;;;;;;;29.88;12.00;;;-4.90;99.90;;;;;;4945797;29;20107;-60
2024/01/13 07:09:45;;;;;;;34.63;14.18;;;-4.90;99.90;;;;;;4947723;29;20075;-58
2024/01/13 07:12:15;;;;;;;33.53;13.48;;;-5.00;99.90;;;;;;4950670;29;20126;-59
2024/01/13 07:14:41;;;;;;;34.95;13.02;;;-4.90;99.90;;;;;;4945523;29;20075;-60
2024/01/13 07:17:08;;;;;;;32.85;14.05;;;-4.90;99.90;;;;;;4953609;29;20449;-59
2024/01/13 07:19:36;;;;;;;29.10;12.07;;;-4.90;99.90;;;;;;4937729;29;20055;-60
2024/01/13 07:22:04;;;;;;;29.48;11.70;;;-4.90;99.90;;;;;;4953280;29;20051;-60
2024/01/13 07:24:31;;;;;;;22.92;10.23;;;-5.00;99.90;;;;;;4945088;29;20043;-58
2024/01/13 07:26:57;;;;;;;30.20;11.48;;;-5.00;99.90;;;;;;4944812;28;20061;-60
2024/01/13 07:29:24;;;;;;;29.42;11.85;;;-5.00;99.90;;;;;;4953450;29;20054;-60
2024/01/13 07:31:51;;;;;;;49.72;16.70;;;-5.00;99.90;;;;;;4943437;28;20050;-59
2024/01/13 07:34:18;;;;;;;60.85;18.42;;;-5.00;99.90;;;;;;4947148;29;20047;-60
2024/01/13 07:36:45;;;;;;;;;;;-5.10;99.90;;;;;;4950963;28;20458;-59
2024/01/13 07:39:12;;;;;;;45.97;17.15;;;-5.30;99.90;;;;;;4953364;29;20316;-60
2024/01/13 07:41:39;;;;;;;;;;;-5.30;99.90;;;;;;4945296;29;20079;-58
2024/01/13 07:44:07;;;;;;;44.53;16.05;;;-5.40;99.90;;;;;;4947318;28;19926;-56
2024/01/13 07:46:42;;;;;;;45.17;15.45;;;-5.40;99.90;;;;;;4951502;28;20126;-57
2024/01/13 07:49:09;;;;;;;35.60;14.77;;;-5.30;99.90;;;;;;4949115;29;20058;-59
2024/01/13 07:51:36;;;;;;;39.92;13.98;;;-5.30;99.90;;;;;;4948701;29;20086;-58
2024/01/13 07:54:03;;;;;;;42.58;15.18;;;-5.30;99.90;;;;;;4948334;28;20054;-59
2024/01/13 07:56:30;;;;;;;;;;;-5.30;99.90;;;;;;4953348;29;20051;-60
2024/01/13 07:58:57;;;;;;;47.10;18.27;;;-5.40;99.90;;;;;;4953146;29;19946;-58
2024/01/13 08:01:24;;;;;;;46.05;16.10;;;-5.30;99.90;;;;;;4948893;28;20047;-60
2024/01/13 08:04:04;;;;;;;39.85;15.20;;;-5.30;99.90;;;;;;4957574;28;20070;-57
2024/01/13 08:06:31;;;;;;;35.10;15.20;;;-5.30;99.90;;;;;;4961589;28;20070;-60
2024/01/13 08:08:58;;;;;;;32.67;13.88;;;-5.30;99.90;;;;;;4952329;29;20043;-59
2024/01/13 08:11:25;;;;;;;32.45;14.60;;;-5.30;99.90;;;;;;4953354;29;20051;-60
2024/01/13 08:14:03;;;;;;;39.05;13.50;;;-5.30;99.90;;;;;;4956669;28;20111;-59
2024/01/13 08:16:31;;;;;;;32.90;12.93;;;-5.30;99.90;;;;;;4955004;28;20050;-58
2024/01/13 08:19:00;;;;;;;35.17;13.50;;;-5.30;99.90;;;;;;4953634;29;20419;-59
2024/01/13 08:21:28;;;;;;;28.23;11.73;;;-5.30;99.90;;;;;;4956497;29;20446;-59
2024/01/13 08:24:05;;;;;;;34.22;13.18;;;-5.30;99.90;;;;;;4948164;28;20492;-60
2024/01/13 08:26:33;;;;;;;36.90;15.30;;;-5.20;99.90;;;;;;4954132;29;20501;-60
2024/01/13 08:28:59;;;;;;;41.10;15.25;;;-5.20;99.90;;;;;;4954380;29;20049;-57
2024/01/13 08:31:26;;;;;;;35.25;13.85;;;-5.20;99.90;;;;;;4955805;29;20043;-59
2024/01/13 08:34:06;;;;;;;41.95;14.63;;;-5.20;99.90;;;;;;4954021;28;20038;-59
2024/01/13 08:36:33;;;;;;;33.15;12.82;;;-5.20;99.90;;;;;;4949326;29;20409;-59
2024/01/13 08:39:00;;;;;;;37.10;14.48;;;-5.20;99.90;;;;;;4955221;29;20478;-58
2024/01/13 08:41:27;;;;;;;41.30;16.70;;;-5.20;99.90;;;;;;4955006;29;20122;-60
2024/01/13 08:44:04;;;;;;;49.00;22.45;;;-5.30;99.90;;;;;;4954660;28;20146;-59
2024/01/13 08:46:31;;;;;;;36.83;16.08;;;-5.20;99.90;;;;;;4954639;28;20548;-60
2024/01/13 08:48:58;;;;;;;;;;;-5.20;99.90;;;;;;4954321;29;20059;-60
2024/01/13 08:51:25;;;;;;;32.80;12.90;;;-5.00;99.90;;;;;;4949861;29;20005;-59
2024/01/13 08:54:05;;;;;;;27.80;12.90;;;-4.80;99.90;;;;;;4954034;28;20872;-59
2024/01/13 08:56:35;;;;;;;28.13;12.07;;;-4.60;99.90;;;;;;4955854;29;20039;-58
2024/01/13 08:59:05;;;;;;;33.90;14.02;;;-4.50;99.90;;;;;;4953866;29;20516;-58
2024/01/13 09:01:32;;;;;;;30.20;13.00;;;-4.40;99.90;;;;;;4947817;29;20527;-59
2024/01/13 09:04:06;;;;;;;25.45;12.70;;;-4.20;99.90;;;;;;4940210;29;20048;-60
2024/01/13 09:06:33;;;;;;;28.42;11.35;;;-4.10;99.90;;;;;;4955695;29;20039;-60
2024/01/13 09:09:00;;;;;;;32.80;12.55;;;-4.00;99.90;;;;;;4955479;29;20168;-60
2024/01/13 09:11:28;;;;;;;31.55;12.63;;;-3.80;99.90;;;;;;4953670;29;20039;-60
2024/01/13 09:14:08;;;;;;;30.20;13.13;;;-3.70;99.90;;;;;;4947047;29;20079;-59
2024/01/13 09:16:36;;;;;;;24.52;10.75;;;-3.60;99.90;;;;;;4950990;29;20126;-59
2024/01/13 09:19:03;;;;;;;27.15;11.00;;;-3.50;99.90;;;;;;4950643;29;20453;-60
2024/01/13 09:21:30;;;;;;;21.85;9.82;;;-3.40;99.90;;;;;;4953327;29;20047;-59
2024/01/13 09:24:07;;;;;;;25.38;9.90;;;-3.50;99.90;;;;;;4955106;28;20497;-59
2024/01/13 09:26:42;;;;;;;28.67;10.90;;;-3.40;99.90;;;;;;4947400;29;20043;-60
2024/01/13 09:29:12;;;;;;;28.33;12.15;;;-3.30;99.90;;;;;;4954592;29;20051;-60
2024/01/13 09:31:39;;;;;;;22.00;10.57;;;-3.10;99.90;;;;;;4950556;29;20110;-60
2024/01/13 09:34:08;;;;;;;23.55;9.55;;;-3.00;99.90;;;;;;4952085;28;20713;-58
2024/01/13 09:36:37;;;;;;;25.95;10.20;;;-2.90;99.90;;;;;;4953940;29;20432;-60
2024/01/13 09:39:04;;;;;;;27.27;12.10;;;-2.80;99.90;;;;;;4951514;29;20043;-60
2024/01/13 09:41:31;;;;;;;28.33;12.27;;;-2.70;99.90;;;;;;4935893;29;20062;-60
2024/01/13 09:44:14;;;;;;;36.90;14.73;;;-2.60;99.90;;;;;;4950419;28;20113;-58
2024/01/13 09:46:42;;;;;;;23.92;10.32;;;-2.70;99.90;;;;;;4952367;29;20134;-59
2024/01/13 09:49:13;;;;;;;33.88;13.88;;;-2.60;99.90;;;;;;4953660;29;20040;-60
2024/01/13 09:51:42;;;;;;;34.58;13.23;;;-2.60;99.90;;;;;;4953880;29;20397;-59
2024/01/13 09:54:11;;;;;;;38.15;13.48;;;-2.70;99.90;;;;;;4950050;28;20062;-59
2024/01/13 09:56:46;;;;;;;33.65;14.23;;;-2.80;99.90;;;;;;4954708;29;20665;-60
2024/01/13 09:59:14;;;;;;;32.00;13.60;;;-2.80;99.90;;;;;;4955091;29;20047;-58
2024/01/13 10:01:41;;;;;;;33.63;15.30;;;-2.70;99.90;;;;;;4948658;29;20055;-60
2024/01/13 10:04:09;;;;;;;35.45;15.90;;;-2.60;99.90;;;;;;4951662;28;20045;-60
2024/01/13 10:06:36;;;;;;;39.50;15.60;;;-2.70;99.90;;;;;;4953701;29;20047;-59
2024/01/13 10:09:04;;;;;;;38.40;15.70;;;-2.70;99.90;;;;;;4962411;28;20047;-60
2024/01/13 10:11:52;;;;;;;36.78;15.48;;;-2.60;99.90;;;;;;4945894;29;20047;-58
2024/01/13 10:14:22;;;;;;;35.10;14.13;;;-2.60;99.90;;;;;;4946530;28;20031;-60
2024/01/13 10:16:49;;;;;;;33.15;13.65;;;-2.50;99.90;;;;;;4953240;29;20388;-58
2024/01/13 10:19:16;;;;;;;;;;;-2.40;99.90;;;;;;4951992;29;20044;-59
2024/01/13 10:21:44;;;;;;;34.72;13.25;;;-2.40;99.90;;;;;;4930045;29;19930;-59
2024/01/13 10:24:11;;;;;;;32.70;14.18;;;-2.30;99.90;;;;;;4952855;28;20444;-58
2024/01/13 10:26:39;;;;;;;34.63;12.82;;;-2.30;99.90;;;;;;4953133;28;20131;-60
2024/01/13 10:29:06;;;;;;;29.27;12.60;;;-2.30;99.90;;;;;;4948892;29;20040;-60
2024/01/13 10:31:35;;;;;;;32.28;12.40;;;-2.40;99.90;;;;;;4952734;29;20035;-59
2024/01/13 10:34:10;;;;;;;39.35;13.38;;;-2.40;99.90;;;;;;4953849;28;20043;-59
2024/01/13 10:36:38;;;;;;;34.08;12.25;;;-2.40;99.90;;;;;;4953883;29;20046;-59
2024/01/13 10:39:07;;;;;;;32.50;14.07;;;-2.40;99.90;;;;;;4950620;29;20039;-60
2024/01/13 10:41:35;;;;;;;39.45;13.20;;;-2.40;99.90;;;;;;4954004;29;20102;-57
2024/01/13 10:44:09;;;;;;;33.08;13.25;;;-2.30;99.90;;;;;;4953539;28;20039;-58
2024/01/13 10:46:38;;;;;;;31.48;12.48;;;-2.20;99.90;;;;;;4947332;29;20040;-59
2024/01/13 10:49:16;;;;;;;29.90;13.85;;;-2.10;99.90;;;;;;4951507;29;20047;-60
2024/01/13 10:51:52;;;;;;;36.10;13.50;;;-2.10;99.90;;;;;;4954014;29;20044;-60
2024/01/13 10:54:25;;;;;;;34.08;11.45;;;-1.90;99.90;;;;;;4951979;28;20042;-59
2024/01/13 10:56:53;;;;;;;36.28;12.10;;;-1.80;99.90;;;;;;4948572;29;20393;-59
2024/01/13 10:59:21;;;;;;;28.63;12.52;;;-1.70;99.90;;;;;;4953079;29;20131;-59
2024/01/13 11:01:49;;;;;;;25.75;11.30;;;-1.60;99.90;;;;;;4951394;28;20039;-59
2024/01/13 11:04:17;;;;;;;30.15;11.07;;;-1.60;99.90;;;;;;4952117;28;20047;-59
2024/01/13 11:06:45;;;;;;;35.80;11.88;;;-1.60;99.90;;;;;;4952477;28;20045;-59
2024/01/13 11:09:12;;;;;;;;;;;-1.50;99.90;;;;;;4952634;29;20060;-61
2024/01/13 11:11:43;;;;;;;25.98;10.45;;;-1.50;99.90;;;;;;4950691;28;20304;-60
2024/01/13 11:14:25;;;;;;;24.15;11.32;;;-1.40;99.90;;;;;;4950676;28;20039;-60
2024/01/13 11:16:54;;;;;;;25.10;11.50;;;-1.40;99.90;;;;;;4952049;29;20118;-60
2024/01/13 11:19:20;;;;;;;31.45;11.70;;;-1.40;99.90;;;;;;4950861;29;20082;-60
2024/01/13 11:21:48;;;;;;;30.02;12.07;;;-1.30;99.90;;;;;;4949263;29;20441;-59
2024/01/13 11:24:17;;;;;;;36.08;11.95;;;-1.30;99.90;;;;;;4954205;28;20074;-59
2024/01/13 11:26:48;;;;;;;24.30;10.18;;;-1.30;99.90;;;;;;4948730;28;20497;-59
2024/01/13 11:29:17;;;;;;;27.23;11.98;;;-1.10;99.90;;;;;;4944726;29;20043;-60
2024/01/13 11:31:45;;;;;;;27.05;10.68;;;-1.10;99.90;;;;;;4949924;29;20400;-59
2024/01/13 11:34:16;;;;;;;19.33;8.57;;;-1.00;99.90;;;;;;4950761;28;20126;-60
2024/01/13 11:36:49;;;;;;;18.70;8.02;;;-1.00;99.90;;;;;;4951699;29;20556;-60
2024/01/13 11:39:18;;;;;;;20.35;9.18;;;-0.80;99.90;;;;;;4947219;29;20039;-59
2024/01/13 11:41:58;;;;;;;15.43;7.90;;;-0.70;99.90;;;;;;4949066;29;20497;-59
2024/01/13 11:44:34;;;;;;;14.85;7.97;;;-0.70;99.90;;;;;;4950316;28;20047;-60
2024/01/13 11:47:05;;;;;;;18.88;8.32;;;-0.60;99.90;;;;;;4952265;29;20520;-60
2024/01/13 11:49:36;;;;;;;26.75;9.00;;;-0.60;99.90;;;;;;4951135;29;20094;-59
2024/01/13 11:52:06;;;;;;;22.75;8.38;;;-0.50;99.90;;;;;;4949908;29;20166;-60
2024/01/13 11:54:35;;;;;;;21.70;8.90;;;-0.40;99.90;;;;;;4945330;28;20519;-60
2024/01/13 11:57:10;;;;;;;24.90;8.43;;;-0.50;99.90;;;;;;4952770;29;20051;-59
2024/01/13 11:59:38;;;;;;;18.58;7.95;;;-0.40;99.90;;;;;;4944834;29;20115;-59
2024/01/13 12:02:06;;;;;;;19.65;7.65;;;-0.50;99.90;;;;;;4947231;29;20062;-58
2024/01/13 12:04:35;;;;;;;18.25;7.18;;;-0.50;99.90;;;;;;4951859;28;20051;-60
2024/01/13 12:07:05;;;;;;;17.25;7.97;;;-0.50;99.90;;;;;;4951476;29;20445;-59
2024/01/13 12:09:32;;;;;;;17.60;7.35;;;-0.50;99.90;;;;;;4951610;29;20054;-60
2024/01/13 12:12:03;;;;;;;13.95;7.22;;;-0.40;99.90;;;;;;4951073;29;20463;-59
2024/01/13 12:14:32;;;;;;;20.13;8.30;;;-0.40;99.90;;;;;;4949698;29;20043;-60
2024/01/13 12:17:00;;;;;;;16.70;6.97;;;-0.40;99.90;;;;;;4948216;29;20039;-61
2024/01/13 12:19:32;;;;;;;15.60;6.97;;;-0.50;99.90;;;;;;4950288;29;20412;-60
2024/01/13 12:21:59;;;;;;;17.98;7.50;;;-0.50;99.90;;;;;;4949097;29;20534;-57
2024/01/13 12:24:31;;;;;;;27.25;7.90;;;-0.40;99.90;;;;;;4953304;28;20047;-59
2024/01/13 12:26:58;;;;;;;19.48;8.02;;;-0.30;99.90;;;;;;4956461;28;20411;-60
2024/01/13 12:29:29;;;;;;;17.88;8.55;;;-0.20;99.90;;;;;;4951692;28;20519;-58
2024/01/13 12:31:57;;;;;;;17.75;7.80;;;-0.10;99.90;;;;;;4948956;29;20091;-58
2024/01/13 12:34:25;;;;;;;16.58;7.40;;;-0.20;99.90;;;;;;4950433;28;20062;-60
2024/01/13 12:36:54;;;;;;;21.42;8.32;;;-0.20;99.90;;;;;;4951459;29;20047;-59
2024/01/13 12:39:23;;;;;;;19.50;7.90;;;-0.30;99.90;;;;;;4944754;28;20105;-60
2024/01/13 12:41:51;;;;;;;22.70;8.27;;;-0.40;99.90;;;;;;4947428;29;20043;-60